Date,TemperatureHighF,TemperatureAvgF,TemperatureLowF,DewpointHighF,DewpointAvgF,DewpointLowF,HumidityHigh,HumidityAvg,HumidityLow,PressureMaxIn,PressureMinIn,WindSpeedMaxMPH,WindSpeedAvgMPH,GustSpeedMaxMPH,PrecipitationSumIn
2013-1-1,50.5,44.5,39.7,50.5,41.9,34.3,100,91,81,29.80,29.56,13,4,13,0.07
2013-1-2,41.8,37.3,33.4,34.9,30.4,28.5,83,76,64,29.89,29.79,10,2,10,0.00
2013-1-3,57.7,40.4,25.4,38.8,27.3,22.1,96,65,29,29.98,29.87,11,2,11,0.00
2013-1-4,52.1,44.2,38.4,41.4,32.5,25.7,90,66,42,30.08,29.92,8,2,8,0.07
2013-1-5,62.2,44.1,34.3,44.1,38.0,32.8,97,82,39,29.95,29.77,5,1,5,0.01
2013-1-6,66.5,43.1,30.1,46.0,30.5,21.1,100,70,24,29.92,29.82,7,1,11,0.01
2013-1-7,62.0,44.8,30.5,36.9,29.8,23.8,84,60,29,29.91,29.66,10,2,10,0.00
2013-1-8,58.2,51.3,43.3,58.2,49.7,35.0,100,95,69,29.69,29.47,11,4,11,0.51
2013-1-9,61.4,58.9,56.4,61.4,58.9,56.4,100,100,100,29.64,29.51,17,6,17,1.50
2013-1-10,69.7,58.1,43.4,61.6,51.1,41.7,100,80,41,29.58,29.50,14,2,14,0.01
2013-1-11,77.1,60.2,43.3,61.1,49.2,41.8,96,72,35,29.57,29.39,13,3,13,0.00
2013-1-12,70.3,63.0,39.3,70.1,62.7,39.0,100,99,86,29.44,29.25,17,3,17,0.61
2013-1-13,51.0,39.0,32.6,39.0,31.7,24.6,100,77,48,29.77,29.41,16,5,16,0.26
2013-1-14,50.5,36.2,30.8,28.9,25.9,23.8,83,67,42,29.84,29.71,16,4,16,0.02
2013-1-15,34.3,32.3,30.7,33.0,29.2,22.5,100,89,64,29.76,29.64,13,3,13,0.27
2013-1-16,51.2,36.5,26.7,33.2,22.8,8.2,100,65,22,29.84,29.71,11,2,11,0.00
2013-1-17,66.8,43.7,25.4,32.6,26.3,20.3,91,58,23,30.04,29.80,13,2,13,0.00
2013-1-18,70.8,49.0,35.0,34.3,29.8,22.4,80,53,21,30.08,29.88,10,2,10,0.00
2013-1-19,67.6,49.7,36.2,44.4,38.1,30.6,86,67,38,29.89,29.73,11,2,11,0.00
2013-1-20,72.6,54.1,43.4,54.6,45.7,39.9,100,77,42,29.81,29.64,9,1,9,0.00
2013-1-21,71.3,54.2,44.7,53.3,44.9,39.6,100,75,42,29.79,29.69,8,2,8,0.00
2013-1-22,73.5,52.4,38.6,48.1,40.5,33.8,88,68,32,29.89,29.76,9,3,9,0.00
2013-1-23,77.8,61.2,47.6,53.9,49.3,45.1,97,69,37,29.89,29.74,11,3,11,0.00
2013-1-24,73.9,62.5,55.7,62.6,58.6,53.2,100,88,64,29.81,29.63,11,2,11,0.00
2013-1-25,74.4,62.2,51.0,61.1,56.5,47.5,95,83,60,29.72,29.62,14,4,14,0.00
2013-1-26,56.9,53.9,51.5,56.5,53.3,49.6,100,98,92,29.76,29.67,8,2,8,0.04
2013-1-27,78.0,65.5,53.3,66.2,59.7,53.3,100,84,51,29.69,29.54,15,4,15,0.01
2013-1-28,83.4,70.5,65.2,66.6,62.2,54.3,95,78,42,29.64,29.47,17,4,17,0.00
2013-1-29,77.8,67.8,53.0,67.2,63.2,51.3,100,87,55,29.48,29.07,20,5,20,0.32
2013-1-30,55.3,46.8,33.4,52.3,27.4,12.4,98,51,22,29.73,29.30,21,5,21,0.01
2013-1-31,69.4,49.2,29.8,26.7,16.6,0.5,80,40,11,29.82,29.71,15,2,15,0.00
2013-2-1,73.0,54.2,40.7,36.5,29.6,18.6,63,43,18,29.92,29.74,14,4,14,0.00
2013-2-2,75.3,58.4,47.4,49.3,41.8,30.6,86,57,37,29.85,29.72,10,2,10,0.00
2013-2-3,78.5,58.4,38.0,37.5,22.3,3.8,75,35,11,29.87,29.60,9,2,9,0.00
2013-2-4,69.4,58.0,50.8,60.0,47.8,26.4,100,72,36,29.61,29.38,10,2,10,0.04
2013-2-5,77.1,63.7,58.4,66.3,59.6,55.1,100,88,61,29.57,29.44,8,2,8,0.00
2013-2-6,66.3,60.9,58.4,64.8,60.1,56.7,100,97,92,29.60,29.46,8,3,8,0.26
2013-2-7,69.5,60.1,55.1,60.3,57.3,51.3,100,91,68,29.58,29.43,13,2,13,0.00
2013-2-8,71.3,57.3,48.1,51.5,44.3,39.4,86,66,37,29.77,29.58,17,4,17,0.01
2013-2-9,60.4,51.2,43.4,60.4,49.4,41.6,100,94,79,29.71,29.37,14,5,14,0.04
2013-2-10,68.6,61.1,53.7,64.7,45.1,21.9,100,65,18,29.59,29.30,20,2,20,2.13
2013-2-11,59.5,52.5,47.6,48.1,43.5,38.7,100,74,54,29.69,29.56,16,4,16,0.47
2013-2-12,57.5,49.3,44.7,54.0,47.6,43.1,100,94,84,29.56,29.39,11,3,11,0.08
2013-2-13,54.6,43.6,35.0,43.9,36.4,33.0,95,77,51,29.71,29.52,14,3,14,0.00
2013-2-14,72.2,49.7,32.6,44.0,31.8,18.9,100,61,18,29.70,29.58,8,1,8,0.00
2013-2-15,59.1,47.1,39.5,36.7,30.5,18.5,81,55,39,29.91,29.64,17,3,17,0.00
2013-2-16,60.4,42.9,27.1,28.7,19.6,5.7,82,47,15,29.98,29.77,11,2,11,0.00
2013-2-17,73.3,55.3,38.8,41.9,27.0,6.5,66,41,12,29.77,29.55,17,4,17,0.00
2013-2-18,77.5,62.1,52.3,61.1,47.3,29.8,82,61,31,29.66,29.35,21,6,21,0.00
2013-2-19,69.7,54.5,39.5,31.1,20.0,-0.9,67,34,11,29.86,29.65,15,4,15,0.00
2013-2-20,51.7,49.5,46.3,36.1,30.8,25.8,66,50,39,29.73,29.35,16,7,16,0.01
2013-2-21,73.1,57.3,45.4,62.4,39.8,11.8,100,61,15,29.45,29.21,14,5,14,0.05
2013-2-22,64.9,49.4,40.9,38.9,32.8,26.8,86,57,30,29.63,29.41,11,3,11,0.00
2013-2-23,66.3,48.2,33.0,33.7,29.4,25.9,79,53,28,29.61,29.48,11,2,11,0.00
2013-2-24,75.5,56.2,36.1,43.0,36.7,28.3,94,56,23,29.51,29.24,11,4,11,0.00
2013-2-25,69.9,56.4,42.2,59.0,36.6,2.6,94,56,11,29.25,29.04,24,6,24,0.05
2013-2-26,61.4,47.5,39.3,33.0,30.2,27.1,77,54,32,29.47,29.22,20,5,20,0.00
2013-2-27,62.5,47.3,34.3,36.8,24.9,3.5,88,51,16,29.74,29.43,18,4,18,0.00
2013-2-28,59.5,44.6,31.4,28.0,22.5,13.8,78,47,21,29.84,29.71,17,3,17,0.00
2013-3-1,60.9,44.3,28.7,29.2,23.0,9.3,82,50,18,29.83,29.72,14,3,14,0.00
2013-3-2,53.0,40.4,29.2,29.0,19.0,7.1,79,49,20,29.94,29.80,15,4,15,0.00
2013-3-3,71.5,51.0,29.4,38.2,22.0,7.7,78,42,12,29.81,29.48,19,4,19,0.00
2013-3-4,78.0,65.1,52.3,56.3,48.9,38.0,84,60,34,29.48,29.24,22,7,22,0.00
2013-3-5,64.5,54.1,39.3,58.7,24.2,-1.7,91,42,11,29.89,29.29,25,7,25,0.00
2013-3-6,70.4,50.8,34.1,22.8,11.1,-5.8,58,28,11,29.99,29.78,11,2,11,0.00
2013-3-7,76.4,56.3,39.3,38.4,20.0,5.5,61,33,11,29.84,29.69,11,3,11,0.00
2013-3-8,71.2,59.4,48.8,54.0,47.8,36.3,80,67,50,29.79,29.61,12,3,12,0.00
2013-3-9,77.1,65.5,57.3,61.4,57.5,51.8,91,77,56,29.61,29.30,16,5,16,0.00
2013-3-10,65.0,56.3,42.4,62.0,44.4,28.9,100,69,34,29.63,29.24,18,5,18,0.72
2013-3-11,59.1,45.3,33.4,31.9,22.1,-1.1,81,49,13,29.68,29.56,14,3,14,0.00
2013-3-12,76.9,53.2,33.0,31.6,19.3,3.6,78,39,11,29.84,29.61,9,2,9,0.00
2013-3-13,77.5,57.8,44.7,34.1,23.2,4.5,64,35,11,30.00,29.83,12,3,12,0.00
2013-3-14,78.0,60.9,44.0,41.9,34.2,26.7,69,42,21,29.95,29.77,15,3,15,0.00
2013-3-15,81.6,64.8,49.2,52.5,44.3,30.1,85,54,21,29.79,29.54,19,4,19,0.00
2013-3-16,82.9,68.7,58.4,57.8,52.8,45.4,92,62,32,29.55,29.30,24,7,24,0.00
2013-3-17,81.1,69.0,62.2,64.1,59.6,56.1,91,74,46,29.39,29.22,14,4,14,0.00
2013-3-18,87.4,70.7,58.4,65.1,57.1,41.3,94,67,35,29.54,29.26,13,4,13,0.00
2013-3-19,81.1,62.4,49.2,48.5,41.0,32.7,87,51,24,29.65,29.48,17,5,17,0.01
2013-3-20,72.6,59.2,46.5,48.5,30.5,8.7,95,49,13,29.82,29.59,14,4,14,0.01
2013-3-21,76.2,60.4,47.9,55.3,37.1,22.9,78,46,26,29.60,29.21,17,4,17,0.00
2013-3-22,85.2,66.7,51.5,65.5,57.1,47.7,91,74,42,29.37,29.18,14,4,14,0.00
2013-3-23,56.0,52.7,49.7,55.0,51.4,47.9,100,95,89,29.38,29.21,10,3,10,0.02
2013-3-24,55.9,48.3,40.4,54.8,32.2,19.1,100,59,29,29.71,29.23,23,7,23,0.07
2013-3-25,59.3,45.1,32.1,24.6,13.8,-2.7,62,35,12,29.95,29.71,16,4,16,0.00
2013-3-26,62.7,44.2,26.7,24.5,13.6,-3.5,76,39,11,30.05,29.87,12,2,12,0.00
2013-3-27,77.3,53.6,34.8,38.9,23.3,6.3,64,40,11,29.92,29.69,17,2,17,0.00
2013-3-28,74.8,61.6,48.7,54.0,48.8,38.5,78,65,46,29.82,29.69,10,2,10,0.00
2013-3-29,79.6,65.4,57.3,58.2,55.4,52.7,92,72,48,29.77,29.66,11,2,11,0.00
2013-3-30,82.7,67.9,57.5,64.7,59.0,55.8,100,76,44,29.68,29.47,14,3,14,0.80
2013-3-31,79.6,67.4,57.7,67.1,60.8,55.8,100,81,51,29.54,29.43,18,3,18,1.07
2013-4-1,89.5,68.4,53.7,62.3,54.4,44.7,100,69,26,29.63,29.48,8,2,8,0.00
2013-4-2,82.7,68.1,58.7,61.7,58.4,53.8,99,74,45,29.59,29.44,14,3,14,0.00
2013-4-3,63.2,49.9,46.9,58.9,46.4,42.2,100,88,79,29.66,29.46,18,5,18,0.31
2013-4-4,49.2,45.8,43.1,43.0,41.2,39.0,95,84,73,29.75,29.62,14,3,14,0.01
2013-4-5,77.1,55.2,38.4,47.9,41.7,36.5,100,69,28,29.81,29.61,8,1,8,0.06
2013-4-6,79.4,63.0,49.4,55.1,49.2,44.3,89,65,35,29.64,29.44,15,4,15,0.00
2013-4-7,81.2,67.1,57.1,60.4,57.7,54.6,97,74,52,29.53,29.36,13,3,13,0.00
2013-4-8,83.2,70.4,62.9,63.6,60.6,56.5,94,74,50,29.41,29.29,15,4,15,0.00
2013-4-9,91.0,75.3,66.1,68.3,63.1,55.5,92,70,35,29.33,29.22,16,4,16,0.00
2013-4-10,72.1,55.5,41.5,69.2,53.0,39.6,100,92,78,29.48,29.25,13,4,13,0.33
2013-4-11,69.9,49.8,38.2,39.8,35.0,28.8,93,63,27,29.54,29.35,11,3,11,0.01
2013-4-12,85.7,59.0,39.8,46.2,34.6,11.8,95,56,11,29.58,29.42,6,1,7,0.00
2013-4-13,90.8,66.0,49.4,52.0,41.8,21.0,83,49,15,29.57,29.34,10,1,10,0.00
2013-4-14,86.6,67.6,50.8,63.9,55.9,47.5,94,70,43,29.39,29.17,14,2,14,0.00
2013-4-15,91.3,75.4,67.4,67.3,65.2,61.3,91,74,41,29.38,29.23,18,4,18,0.00
2013-4-16,94.9,78.9,70.6,69.5,65.3,58.3,87,68,35,29.48,29.37,14,3,14,0.06
2013-4-17,91.0,77.9,70.6,70.8,67.7,61.5,95,74,42,29.48,29.28,14,4,14,0.00
2013-4-18,73.7,58.4,46.1,68.8,53.2,36.3,100,84,64,29.68,29.21,17,6,17,0.97
2013-4-19,68.6,48.8,33.9,36.6,28.8,13.7,96,55,18,29.81,29.66,15,3,15,0.00
2013-4-20,80.7,57.0,38.4,37.9,27.6,5.8,83,46,11,29.79,29.59,12,1,12,0.00
2013-4-21,83.2,61.5,44.0,48.0,40.4,29.3,91,55,20,29.77,29.61,8,2,8,0.00
2013-4-22,86.6,66.3,49.4,56.0,50.3,43.0,92,61,32,29.69,29.45,11,2,11,0.00
2013-4-23,84.7,64.1,48.5,64.5,55.9,43.5,92,76,46,29.63,29.44,14,4,14,0.00
2013-4-24,69.2,52.6,40.9,43.4,38.8,33.4,94,65,32,29.83,29.64,15,5,15,0.05
2013-4-25,83.4,63.4,51.5,47.4,40.2,17.2,83,51,12,29.90,29.73,10,2,10,0.01
2013-4-26,86.6,69.5,58.6,64.9,54.1,38.1,84,60,46,29.77,29.53,12,2,12,0.00
2013-4-27,89.5,73.2,65.8,67.8,64.0,57.6,94,75,45,29.64,29.50,13,3,13,0.00
2013-4-28,92.8,72.9,58.2,64.6,58.2,51.8,98,66,30,29.59,29.42,8,1,8,0.00
2013-4-29,94.6,72.7,59.6,68.4,57.2,44.3,100,66,24,29.52,29.37,12,1,12,0.00
2013-4-30,89.9,71.4,59.1,68.1,61.7,53.4,100,75,39,29.42,29.30,8,2,8,0.02
2013-5-1,93.1,72.8,60.5,68.7,62.1,53.5,100,74,31,29.50,29.37,13,2,13,0.00
2013-5-2,68.1,57.5,42.7,65.2,53.4,37.9,96,86,73,29.81,29.49,21,5,21,0.02
2013-5-3,68.6,51.5,40.9,38.2,27.7,5.5,84,50,12,29.80,29.60,19,6,19,0.04
2013-5-4,80.7,58.5,37.7,37.9,25.7,8.2,83,42,11,29.60,29.42,17,3,17,0.00
2013-5-5,71.7,55.3,40.0,43.0,37.8,31.6,88,56,28,29.69,29.54,18,3,18,0.00
2013-5-6,82.5,62.3,42.7,53.3,46.6,41.0,98,63,29,29.67,29.54,9,2,9,0.00
2013-5-7,96.4,72.7,56.0,59.6,49.2,22.4,95,56,11,29.64,29.49,6,1,6,0.01
2013-5-8,91.5,69.6,59.8,61.4,55.2,44.9,85,65,26,29.60,29.49,14,2,14,0.00
2013-5-9,77.8,69.0,64.0,70.2,64.8,55.1,100,87,62,29.58,29.37,11,2,11,0.19
2013-5-10,93.1,72.7,63.1,70.5,65.4,57.5,100,82,36,29.58,29.40,8,1,8,0.01
2013-5-11,85.0,71.7,59.1,65.1,51.8,37.2,94,58,23,29.70,29.51,14,3,14,0.00
2013-5-12,85.0,67.3,54.1,50.4,41.5,22.4,78,48,14,29.80,29.67,16,3,16,0.00
2013-5-13,91.5,69.1,49.7,50.2,39.9,17.3,82,46,11,29.84,29.70,10,2,10,0.00
2013-5-14,92.8,73.4,57.1,59.1,51.1,35.0,87,52,18,29.77,29.59,17,3,17,0.00
2013-5-15,72.1,68.5,65.8,71.7,65.4,59.3,100,90,71,29.67,29.41,11,3,11,0.50
2013-5-16,83.6,72.2,61.3,70.2,66.2,61.3,100,83,60,29.51,29.33,17,3,17,0.44
2013-5-17,95.3,79.6,71.2,72.6,70.3,67.2,98,77,44,29.51,29.36,13,3,13,0.00
2013-5-18,97.1,81.2,70.4,72.3,69.3,64.4,99,72,39,29.50,29.38,19,4,19,0.00
2013-5-19,97.1,80.4,70.4,70.1,66.3,58.9,93,67,33,29.45,29.30,16,4,16,0.00
2013-5-20,95.6,80.3,70.3,72.5,68.8,64.8,97,72,42,29.44,29.27,15,4,15,0.00
2013-5-21,92.8,77.2,65.4,73.9,69.1,63.2,100,79,45,29.42,29.21,16,4,16,0.04
2013-5-22,97.1,74.6,61.3,68.3,62.7,48.5,100,74,25,29.49,29.39,6,2,6,0.05
2013-5-23,96.0,79.8,69.7,74.0,70.0,66.3,100,76,44,29.61,29.46,7,2,7,0.00
2013-5-24,95.1,79.3,69.9,75.1,69.2,61.3,100,75,40,29.71,29.57,12,1,12,0.05
2013-5-25,94.2,78.2,68.3,72.3,67.1,62.4,94,72,42,29.71,29.61,10,2,10,0.00
2013-5-26,93.7,79.4,71.2,77.4,69.5,63.9,100,75,46,29.67,29.53,8,2,8,0.06
2013-5-27,95.1,79.4,68.1,72.0,66.4,58.2,100,70,34,29.60,29.40,16,3,16,0.00
2013-5-28,96.4,80.5,71.2,69.9,65.4,58.9,91,65,34,29.50,29.39,15,4,15,0.00
2013-5-29,92.6,79.2,73.3,70.5,68.2,65.1,87,71,44,29.44,29.33,14,4,14,0.00
2013-5-30,93.5,81.1,73.9,71.9,70.1,66.3,89,72,46,29.42,29.30,19,4,19,0.00
2013-5-31,98.9,83.6,76.0,74.6,71.3,64.6,92,70,37,29.44,29.30,18,4,18,0.00
2013-6-1,101.9,84.7,76.4,75.2,70.9,63.2,95,68,32,29.46,29.35,14,4,14,0.00
2013-6-2,90.1,75.0,62.2,74.8,62.1,50.6,100,71,30,29.60,29.45,9,2,9,0.00
2013-6-3,98.3,78.1,61.4,62.2,55.7,43.2,84,54,21,29.55,29.40,7,2,7,0.00
2013-6-4,101.8,82.5,69.0,69.1,64.0,57.1,85,60,28,29.52,29.36,11,2,11,0.00
2013-6-5,103.2,84.1,68.6,72.8,65.9,54.5,98,62,25,29.48,29.27,11,1,11,0.00
2013-6-6,88.8,75.1,67.0,72.8,69.0,64.7,100,83,50,29.46,29.34,11,2,11,0.20
2013-6-7,88.3,73.5,62.2,67.0,58.0,44.5,100,67,26,29.53,29.43,12,2,12,0.00
2013-6-8,98.3,78.6,62.3,65.0,57.6,45.9,87,56,22,29.51,29.37,7,2,7,0.00
2013-6-9,106.8,81.9,69.5,72.8,68.1,57.6,96,69,28,29.51,29.40,10,2,10,0.00
2013-6-10,105.4,83.8,68.1,72.6,66.4,51.4,100,65,22,29.55,29.48,8,1,8,0.00
2013-6-11,99.6,81.9,72.6,74.9,71.3,65.6,99,75,38,29.62,29.53,24,2,24,0.00
2013-6-12,101.6,84.4,73.5,76.1,70.7,61.5,100,70,32,29.63,29.50,9,2,9,0.00
2013-6-13,105.7,86.8,73.7,75.8,70.6,59.4,98,65,25,29.63,29.45,9,2,9,0.00
2013-6-14,104.1,86.6,72.4,74.1,69.9,62.0,95,64,29,29.56,29.43,7,1,7,0.00
2013-6-15,100.3,83.1,69.0,74.7,71.3,65.9,98,71,41,29.57,29.45,10,1,10,0.00
2013-6-16,81.1,79.6,78.9,75.5,75.0,74.6,89,86,82,29.51,29.48,4,1,4,0.00
2013-6-17,100.5,84.8,75.8,75.4,71.5,66.5,94,67,35,29.58,29.41,12,2,12,0.00
2013-6-18,95.1,80.3,72.1,74.2,71.5,66.9,90,76,46,29.53,29.44,11,2,11,0.00
2013-6-19,101.4,82.2,68.5,76.1,69.5,63.3,100,71,34,29.56,29.47,8,1,8,0.00
2013-6-20,102.5,86.2,74.2,75.5,68.7,57.4,97,63,28,29.63,29.52,12,2,12,0.00
2013-6-21,103.4,86.5,73.1,75.9,67.7,56.3,96,61,26,29.66,29.55,11,2,11,0.00
2013-6-22,103.4,85.8,73.0,75.0,67.6,58.7,95,61,27,29.63,29.47,14,2,14,0.00
2013-6-23,103.0,85.6,71.2,73.6,66.3,54.0,94,59,25,29.58,29.47,12,3,12,0.00
2013-6-24,102.8,89.4,72.6,75.0,65.1,51.4,96,53,23,29.62,29.47,11,3,11,0.00
2013-6-25,103.4,86.4,74.4,75.5,68.6,55.7,94,63,26,29.60,29.43,14,4,14,0.00
2013-6-26,105.7,87.7,75.3,74.3,67.0,52.8,94,59,22,29.56,29.43,14,4,14,0.00
2013-6-27,110.2,88.6,74.9,73.8,63.7,39.4,92,54,13,29.61,29.43,11,2,11,0.00
2013-6-28,111.3,90.3,74.4,72.0,60.1,33.1,84,47,11,29.53,29.33,9,2,9,0.00
2013-6-29,105.0,89.3,72.4,69.7,56.4,30.8,84,42,13,29.41,29.31,14,3,14,0.00
2013-6-30,99.4,82.8,69.4,63.3,51.5,35.7,75,40,14,29.46,29.35,12,3,12,0.00
2013-7-1,94.0,79.7,67.6,60.1,51.9,33.0,70,44,16,29.54,29.45,13,3,13,0.00
2013-7-2,96.2,80.9,66.1,59.2,47.7,23.3,73,40,11,29.60,29.51,13,2,13,0.00
2013-7-3,101.4,81.0,65.8,62.0,50.5,30.8,74,44,13,29.60,29.47,11,2,11,0.00
2013-7-4,98.7,80.1,67.4,64.4,59.6,46.2,79,55,22,29.58,29.47,10,1,10,0.00
2013-7-5,104.3,83.7,66.3,67.0,57.4,37.1,90,52,15,29.57,29.43,8,2,8,0.00
2013-7-6,107.7,85.5,69.0,72.6,59.1,34.5,88,51,13,29.54,29.40,9,2,9,0.00
2013-7-7,107.9,86.3,71.9,73.7,66.6,53.7,90,58,21,29.56,29.46,11,2,11,0.00
2013-7-8,98.7,83.3,72.8,75.8,69.5,63.0,95,68,35,29.68,29.56,11,2,11,0.00
2013-7-9,107.7,87.6,74.4,75.4,65.5,47.5,97,57,19,29.71,29.55,11,2,11,0.00
2013-7-10,108.1,89.3,75.1,74.6,64.9,48.8,91,53,18,29.65,29.46,11,2,11,0.00
2013-7-11,106.1,84.4,73.9,71.7,67.7,53.8,89,64,23,29.56,29.45,21,3,21,0.00
2013-7-12,107.2,87.1,71.2,73.9,65.8,54.4,95,59,23,29.54,29.43,8,1,8,0.00
2013-7-13,96.7,83.8,68.1,69.0,54.8,32.9,77,45,16,29.55,29.42,11,3,11,0.00
2013-7-14,78.4,69.6,61.1,71.9,59.7,45.3,100,72,46,29.54,29.43,5,2,6,0.00
2013-7-15,81.1,71.8,67.8,74.7,69.9,67.6,100,94,76,29.64,29.51,10,2,10,0.00
2013-7-16,96.4,78.1,68.5,79.1,71.4,66.8,100,83,42,29.73,29.61,10,2,10,0.00
2013-7-17,96.1,78.5,70.9,77.8,73.0,67.8,100,86,44,29.77,29.68,8,2,8,0.00
2013-7-18,102.7,82.9,70.7,78.9,70.9,58.8,100,73,29,29.73,29.55,8,1,8,0.00
2013-7-19,85.8,74.6,69.6,79.6,71.2,69.5,100,90,75,29.65,29.50,11,1,11,0.00
2013-7-20,100.6,78.3,68.7,76.6,70.9,60.2,100,84,32,29.56,29.43,8,1,8,0.00
2013-7-21,97.9,81.5,69.8,77.6,71.6,63.0,100,77,37,29.53,29.43,12,2,12,0.00
2013-7-22,98.8,85.2,75.5,77.2,72.4,65.6,99,70,39,29.57,29.46,13,3,13,0.00
2013-7-23,101.5,86.2,76.3,75.8,68.8,55.0,94,62,26,29.57,29.41,14,3,14,0.00
2013-7-24,94.6,84.0,74.6,74.3,71.4,65.8,94,69,46,29.58,29.44,14,2,14,0.00
2013-7-25,102.2,84.9,73.2,76.1,71.7,64.3,99,69,34,29.60,29.51,8,2,8,0.00
2013-7-26,96.4,84.1,76.1,75.5,70.2,62.7,93,67,37,29.59,29.40,9,2,13,0.00
2013-7-27,88.7,77.5,69.4,74.2,69.4,65.6,98,78,51,29.55,29.45,11,2,11,0.00
2013-7-28,102.0,80.7,66.2,73.1,69.3,63.7,100,74,34,29.54,29.44,13,2,13,0.01
2013-7-29,103.8,85.2,73.6,77.3,68.9,54.8,100,66,25,29.60,29.51,15,2,15,0.00
2013-7-30,105.1,86.1,75.2,75.0,65.3,46.4,93,58,20,29.68,29.53,14,4,14,0.00
2013-7-31,106.5,87.0,74.1,73.6,65.9,52.2,94,57,21,29.65,29.47,10,2,10,0.00
2013-8-1,108.5,88.8,76.4,72.0,65.3,47.3,80,54,18,29.58,29.44,11,2,11,0.00
2013-8-2,108.8,89.0,75.7,71.5,64.8,51.1,85,52,20,29.54,29.43,9,2,9,0.00
2013-8-3,106.5,88.0,74.3,74.8,64.8,43.6,93,55,17,29.59,29.50,11,2,11,0.00
2013-8-4,107.8,88.7,75.9,75.9,67.4,48.5,93,57,19,29.66,29.48,9,2,9,0.00
2013-8-5,108.3,89.1,75.9,74.0,64.0,44.6,90,52,17,29.60,29.42,11,2,11,0.00
2013-8-6,108.1,89.2,74.8,74.3,64.6,50.5,92,52,20,29.52,29.38,11,3,11,0.00
2013-8-7,110.1,89.6,76.3,74.0,64.1,44.0,91,52,16,29.50,29.34,14,3,14,0.00
2013-8-8,108.7,88.6,74.6,74.2,63.1,37.9,93,53,13,29.48,29.34,11,3,11,0.00
2013-8-9,109.2,88.2,74.5,72.6,59.2,29.8,90,50,11,29.54,29.41,11,2,11,0.00
2013-8-10,109.0,88.8,76.1,74.1,65.0,44.8,87,54,17,29.60,29.46,11,2,11,0.00
2013-8-11,107.6,86.2,73.4,76.3,68.0,54.0,96,63,22,29.66,29.52,9,2,9,0.00
2013-8-12,104.5,86.4,74.6,74.7,66.8,52.6,95,60,23,29.64,29.50,10,2,10,0.00
2013-8-13,105.4,85.9,76.3,76.0,69.3,55.5,97,64,24,29.59,29.43,12,3,12,0.00
2013-8-14,96.2,81.2,74.3,80.7,73.7,68.3,100,81,46,29.58,29.47,16,2,16,0.00
2013-8-15,95.9,81.2,72.1,74.6,63.8,56.0,94,61,31,29.61,29.49,14,2,14,0.00
2013-8-16,93.7,79.4,67.1,66.0,61.4,57.1,76,57,40,29.60,29.48,10,3,10,0.00
2013-8-17,94.6,77.4,64.2,60.8,54.8,42.1,83,52,22,29.63,29.51,14,3,14,0.00
2013-8-18,99.3,79.9,66.2,67.6,56.1,40.9,84,52,18,29.62,29.52,11,2,11,0.00
2013-8-19,101.6,83.0,68.2,65.7,56.4,41.0,82,48,17,29.62,29.48,7,2,7,0.00
2013-8-20,103.3,84.0,69.6,69.0,56.6,34.4,88,48,14,29.61,29.49,8,1,8,0.00
2013-8-21,100.0,83.3,70.5,71.3,64.7,54.1,94,60,27,29.66,29.53,8,1,8,0.00
2013-8-22,104.5,86.4,74.1,74.5,66.2,52.0,87,58,22,29.65,29.48,11,1,11,0.00
2013-8-23,105.1,87.1,74.1,73.0,65.1,52.6,88,56,22,29.59,29.43,9,1,9,0.00
2013-8-24,104.2,86.2,73.2,71.4,64.6,53.3,83,54,24,29.61,29.50,11,2,11,0.00
2013-8-25,103.4,85.4,71.6,70.2,63.2,49.6,88,54,22,29.69,29.58,11,2,11,0.00
2013-8-26,100.0,81.7,71.2,72.4,67.6,56.4,95,68,29,29.71,29.60,17,2,17,0.00
2013-8-27,97.7,81.6,69.6,70.8,65.5,56.6,95,65,31,29.69,29.57,8,1,8,0.00
2013-8-28,102.4,83.2,70.0,71.2,65.7,57.1,93,62,27,29.66,29.53,8,1,8,0.00
2013-8-29,108.1,87.7,72.1,69.7,59.4,40.2,85,49,15,29.63,29.49,9,1,9,0.00
2013-8-30,107.2,88.2,75.2,72.4,57.6,29.5,88,47,11,29.57,29.41,14,2,14,0.00
2013-8-31,108.5,88.4,75.2,72.8,63.2,43.7,89,52,16,29.49,29.35,8,2,9,0.00
2013-9-1,107.8,88.3,75.4,72.2,64.6,52.1,87,53,20,29.48,29.33,9,2,9,0.00
2013-9-2,104.5,86.0,75.0,73.5,66.6,52.3,88,58,22,29.54,29.39,12,2,12,0.00
2013-9-3,108.3,86.3,73.0,71.7,64.0,48.1,87,56,18,29.52,29.40,14,1,14,0.00
2013-9-4,104.2,84.7,72.1,73.6,67.6,57.5,94,63,26,29.60,29.49,8,1,8,0.00
2013-9-5,106.5,85.6,72.1,72.2,64.8,49.6,93,58,20,29.66,29.53,8,1,8,0.00
2013-9-6,106.0,86.4,72.3,74.0,60.9,35.9,95,54,14,29.65,29.48,11,1,11,0.00
2013-9-7,106.0,83.2,71.9,74.0,65.2,38.8,93,64,15,29.61,29.46,17,2,17,0.00
2013-9-8,104.7,82.8,68.2,73.2,62.0,33.8,100,62,15,29.57,29.42,8,1,8,0.00
2013-9-9,102.2,82.7,68.5,71.8,63.7,50.3,96,61,24,29.58,29.47,11,2,11,0.00
2013-9-10,98.4,81.2,71.4,73.1,65.8,52.9,95,66,27,29.66,29.55,6,1,6,0.00
2013-9-11,103.1,81.1,70.7,73.7,65.7,48.4,100,69,20,29.68,29.53,17,2,17,0.00
2013-9-12,99.1,81.2,69.4,77.6,66.3,54.5,100,68,27,29.64,29.47,7,1,7,0.00
2013-9-13,103.3,83.2,69.6,68.3,62.6,46.2,88,58,21,29.53,29.36,13,2,13,0.00
2013-9-14,98.4,83.5,72.3,68.1,61.0,52.3,79,52,26,29.52,29.41,11,3,11,0.00
2013-9-15,103.6,83.2,71.2,65.3,59.6,50.9,69,50,24,29.59,29.49,9,2,9,0.00
2013-9-16,103.3,83.7,71.2,73.0,63.7,51.6,92,58,23,29.65,29.51,8,1,8,0.00
2013-9-17,101.1,84.3,72.3,70.7,62.2,51.9,83,54,25,29.64,29.48,8,1,8,0.00
2013-9-18,102.4,85.0,73.7,70.5,62.1,46.7,79,53,20,29.58,29.43,8,1,8,0.00
2013-9-19,100.6,82.1,73.9,73.8,69.2,62.2,93,69,33,29.56,29.41,8,2,8,0.20
2013-9-20,76.4,72.6,68.9,75.5,72.1,68.9,100,98,87,29.48,29.33,9,2,12,3.07
2013-9-21,85.6,72.3,64.4,69.2,60.8,48.6,100,73,37,29.48,29.37,13,4,13,0.07
2013-9-22,86.2,69.0,57.0,57.1,48.7,29.9,87,57,18,29.48,29.34,12,3,12,0.00
2013-9-23,94.4,72.8,57.7,65.9,55.8,46.5,83,61,25,29.42,29.30,7,1,7,0.00
2013-9-24,95.7,78.7,66.9,67.2,57.3,37.0,89,57,18,29.45,29.37,12,2,12,0.00
2013-9-25,97.3,77.0,60.6,59.7,44.7,19.3,84,44,11,29.45,29.34,8,1,8,0.00
2013-9-26,97.1,77.6,62.2,61.8,53.6,45.0,80,50,21,29.48,29.36,9,1,9,0.00
2013-9-27,93.0,77.8,64.7,72.0,64.9,58.0,95,68,40,29.52,29.43,8,1,8,0.00
2013-9-28,93.5,75.8,70.0,77.3,70.9,64.8,100,86,55,29.58,29.45,9,1,9,1.26
2013-9-29,75.4,70.1,67.1,73.1,69.3,67.1,100,97,84,29.58,29.46,6,1,6,0.20
2013-9-30,91.6,75.6,67.1,72.7,69.4,65.5,100,84,48,29.48,29.37,5,0,5,0.00
2013-10-1,94.6,78.9,72.3,77.5,72.0,67.7,100,82,47,29.51,29.42,5,1,8,0.01
2013-10-2,95.9,78.0,71.2,76.5,71.3,65.6,100,83,43,29.56,29.45,8,1,8,0.00
2013-10-3,95.7,79.0,71.4,76.0,71.1,64.9,100,80,43,29.52,29.40,8,1,8,0.00
2013-10-4,95.0,78.2,69.6,74.5,69.5,62.3,100,79,39,29.50,29.42,11,2,11,0.00
2013-10-5,95.2,74.0,57.2,76.1,65.0,43.8,100,77,36,29.60,29.45,17,3,17,0.00
2013-10-6,78.6,62.0,50.3,53.1,39.3,9.9,90,54,11,29.68,29.55,14,3,14,0.00
2013-10-7,84.7,61.7,44.9,50.5,36.5,10.4,92,54,11,29.71,29.59,8,1,8,0.00
2013-10-8,86.0,65.4,49.8,54.7,46.3,36.8,78,56,23,29.68,29.55,7,1,7,0.00
2013-10-9,88.7,67.7,52.3,59.8,52.5,45.0,98,65,27,29.66,29.55,7,1,7,0.00
2013-10-10,90.3,70.4,56.6,64.8,57.5,51.5,100,69,32,29.64,29.48,11,1,11,0.00
2013-10-11,88.5,74.5,63.1,69.4,66.0,62.0,100,78,50,29.54,29.41,11,1,11,0.00
2013-10-12,88.0,72.7,65.8,77.1,70.3,65.8,100,93,66,29.65,29.47,13,1,13,0.45
2013-10-13,75.0,69.7,67.1,72.7,68.8,66.9,100,97,84,29.75,29.60,8,2,8,0.07
2013-10-14,79.9,72.9,68.9,73.8,70.6,68.9,100,93,74,29.69,29.51,8,1,8,0.00
2013-10-15,86.0,73.1,66.5,73.6,70.4,66.5,100,93,58,29.54,29.44,12,2,12,1.09
2013-10-16,66.5,57.7,55.4,66.4,57.7,55.2,100,100,100,29.61,29.48,13,2,13,0.89
2013-10-17,76.3,59.2,49.4,58.1,51.3,43.1,100,81,36,29.68,29.54,8,1,8,0.01
2013-10-18,78.8,60.8,50.3,57.3,53.8,50.3,100,81,44,29.59,29.48,5,1,5,0.00
2013-10-19,68.5,55.3,43.5,57.5,43.4,30.2,98,70,29,29.74,29.55,13,3,13,0.00
2013-10-20,76.3,56.3,41.3,49.6,43.2,35.8,98,69,27,29.66,29.48,8,1,8,0.00
2013-10-21,81.7,64.6,53.6,66.0,58.0,47.0,100,81,51,29.61,29.47,10,1,10,0.04
2013-10-22,76.3,60.9,51.2,59.0,48.0,30.9,98,71,24,29.69,29.58,11,2,11,0.00
2013-10-23,88.0,63.5,48.2,53.9,47.6,35.6,94,65,20,29.70,29.61,6,0,6,0.00
2013-10-24,88.1,65.2,50.2,57.6,48.1,26.6,94,63,15,29.79,29.65,7,1,7,0.00
2013-10-25,77.5,61.8,51.2,53.6,48.0,42.0,88,64,34,29.95,29.79,16,3,16,0.00
2013-10-26,81.7,64.4,52.0,60.8,52.5,42.3,97,67,47,29.83,29.61,15,2,15,0.37
2013-10-27,70.0,60.9,55.7,63.7,59.5,55.7,100,95,77,29.71,29.56,6,1,8,0.61
2013-10-28,85.6,68.2,57.0,70.2,62.7,57.0,100,85,51,29.69,29.58,8,1,8,0.00
2013-10-29,81.8,72.0,65.6,71.9,67.4,65.6,100,87,66,29.68,29.58,11,1,11,0.00
2013-10-30,69.8,66.9,63.8,69.8,66.7,63.8,100,99,94,29.63,29.38,10,2,11,3.58
2013-10-31,81.8,67.4,52.0,75.0,57.3,23.3,100,78,16,29.46,29.26,11,1,11,2.68
2013-11-1,81.5,63.1,46.4,55.7,48.9,39.8,98,66,28,29.57,29.37,13,1,13,0.00
2013-11-2,71.6,57.7,46.4,52.7,36.0,12.3,92,52,15,29.81,29.57,15,3,15,0.00
2013-11-3,73.6,54.7,39.9,46.4,40.2,33.8,91,63,30,29.79,29.61,9,1,9,0.00
2013-11-4,68.2,59.2,53.0,60.9,53.7,42.4,99,83,67,29.69,29.58,8,2,8,0.08
2013-11-5,74.1,66.7,61.1,68.3,64.4,59.5,100,93,78,29.64,29.52,8,2,8,0.28
2013-11-6,68.0,57.9,45.3,68.0,56.5,41.9,100,95,83,29.88,29.55,14,3,14,0.65
2013-11-7,66.4,50.3,39.4,42.8,37.7,30.1,94,67,29,30.03,29.87,10,2,11,0.00
2013-11-8,71.6,53.6,41.5,49.4,43.0,35.5,99,72,32,29.94,29.71,8,0,8,0.01
2013-11-9,62.4,55.1,49.3,49.7,47.3,45.2,96,76,60,29.79,29.71,5,1,5,0.00
2013-11-10,77.0,56.3,47.5,51.7,47.1,39.2,99,77,32,29.90,29.77,7,1,7,0.00
2013-11-11,79.7,58.4,44.9,54.7,47.7,43.3,100,74,34,29.84,29.71,5,0,5,0.00
2013-11-12,55.7,49.0,34.0,54.0,42.6,26.8,100,80,59,30.18,29.82,12,3,13,0.00
2013-11-13,58.3,40.5,29.8,28.8,22.7,6.1,86,57,17,30.21,29.94,9,2,9,0.00
2013-11-14,68.7,47.3,28.4,43.7,32.8,21.1,93,63,27,29.95,29.63,10,1,10,0.00
2013-11-15,77.3,59.3,48.5,62.2,52.5,39.5,100,80,52,29.63,29.43,11,1,11,0.04
2013-11-16,76.1,67.9,59.2,71.8,66.4,59.2,100,95,81,29.49,29.30,10,2,14,0.00
2013-11-17,92.3,74.6,64.6,72.2,68.0,61.9,100,83,43,29.52,29.33,12,2,12,0.00
2013-11-18,79.3,65.9,57.2,66.0,36.6,16.4,100,40,14,29.71,29.51,14,4,14,0.00
2013-11-19,76.4,59.2,50.7,38.5,31.4,18.0,51,40,16,29.74,29.60,13,3,13,0.00
2013-11-20,62.9,55.1,42.1,51.9,39.5,31.0,72,57,41,29.62,29.50,6,2,6,0.00
2013-11-21,76.8,67.3,60.6,71.5,64.5,51.5,100,91,70,29.64,29.53,7,2,7,0.31
2013-11-22,69.2,41.9,36.8,69.2,41.9,36.8,100,100,100,29.91,29.60,13,4,14,4.06
2013-11-23,43.5,40.8,37.4,43.5,40.2,34.1,100,98,80,30.03,29.89,17,4,17,0.50
2013-11-24,46.2,36.9,33.6,34.1,27.3,19.0,93,70,39,30.07,29.88,14,4,14,0.07
2013-11-25,37.9,35.2,34.0,37.9,35.0,32.2,100,99,93,29.90,29.64,12,2,12,1.32
2013-11-26,43.5,37.1,34.5,40.1,35.4,30.6,100,94,76,29.84,29.63,13,3,13,0.35
2013-11-27,51.1,35.4,26.6,30.7,21.5,11.6,88,62,26,30.00,29.83,11,2,11,0.00
2013-11-28,58.8,38.5,28.4,31.7,26.8,20.0,87,68,28,30.03,29.91,8,1,8,0.09
2013-11-29,67.6,43.0,28.6,41.9,30.3,20.3,99,68,22,30.08,29.92,8,1,8,0.00
2013-11-30,68.2,52.2,38.5,49.6,41.3,30.5,78,68,41,29.95,29.74,9,1,9,0.00
2013-12-1,71.2,60.7,54.5,58.9,53.6,46.5,98,78,58,29.77,29.48,12,3,12,0.00
2013-12-2,76.6,59.5,50.7,63.4,52.9,42.1,100,82,40,29.48,29.22,7,1,7,0.00
2013-12-3,83.6,62.9,50.3,61.4,52.9,44.3,100,76,32,29.23,29.11,12,2,12,0.01
2013-12-4,83.5,68.6,61.1,66.4,62.8,58.8,100,84,49,29.37,29.22,15,3,15,0.00
2013-12-5,67.6,42.3,31.3,66.7,38.0,29.1,100,85,67,29.66,29.36,15,4,15,0.04
2013-12-6,34.5,31.0,26.9,34.5,30.2,24.2,100,97,89,30.00,29.58,15,5,15,0.31
2013-12-7,31.6,29.6,26.6,30.3,27.4,24.3,97,91,86,30.02,29.82,14,3,14,0.00
2013-12-8,40.4,35.5,30.7,38.1,34.0,30.0,100,95,82,29.84,29.61,5,0,5,0.00
2013-12-9,39.2,36.3,31.4,38.1,36.1,31.3,100,99,93,29.92,29.65,13,3,13,0.05
2013-12-10,49.3,32.2,22.4,31.3,22.6,18.4,100,71,35,30.05,29.90,11,2,11,0.00
2013-12-11,55.2,38.4,24.8,36.3,28.3,22.7,96,71,38,30.10,29.89,8,1,8,0.01
2013-12-12,59.2,40.8,29.1,30.7,27.9,21.9,93,64,24,30.13,29.88,8,2,8,0.00
2013-12-13,45.7,41.5,37.0,45.7,36.7,27.8,100,85,60,29.89,29.41,10,1,10,0.66
2013-12-14,48.0,42.9,31.8,48.0,40.3,28.1,100,91,74,29.86,29.38,17,4,17,0.01
2013-12-15,61.0,38.8,24.8,37.0,29.4,23.8,99,74,31,29.93,29.82,7,1,7,0.00
2013-12-16,69.1,47.3,33.6,34.9,31.7,23.9,89,61,23,29.87,29.74,10,2,10,0.00
2013-12-17,76.8,51.7,37.4,38.2,34.0,26.9,82,57,21,29.87,29.77,8,1,8,0.00
2013-12-18,73.4,53.5,38.8,50.0,38.9,26.6,90,64,22,29.86,29.64,11,2,11,0.00
2013-12-19,74.3,62.9,50.7,64.4,56.3,48.6,95,81,59,29.64,29.38,17,5,17,0.00
2013-12-20,72.5,68.9,66.0,68.9,66.4,64.3,98,92,81,29.44,29.26,14,4,14,0.00
2013-12-21,70.1,52.9,41.5,68.9,52.8,41.3,100,99,80,29.37,29.12,11,2,11,0.71
2013-12-22,51.4,41.3,30.9,51.2,37.1,26.6,100,86,54,29.91,29.36,14,4,14,0.00
2013-12-23,56.1,36.0,25.5,29.3,26.5,23.5,96,72,33,30.09,29.90,9,2,9,0.00
2013-12-24,59.9,40.4,27.1,34.0,27.7,22.1,96,66,28,30.10,29.86,8,2,8,0.00
2013-12-25,62.9,44.5,32.0,41.3,34.6,27.0,88,71,37,29.93,29.84,8,1,8,0.00
2013-12-26,65.8,45.4,34.1,41.3,36.1,32.9,98,74,35,29.99,29.85,7,1,7,0.00
2013-12-27,65.5,47.1,37.2,41.7,36.6,34.0,94,71,36,30.01,29.88,7,1,7,0.00
2013-12-28,64.6,47.0,34.5,43.1,32.7,25.2,97,63,29,29.88,29.56,4,0,5,0.00
2013-12-29,59.9,46.0,35.4,44.9,34.3,25.9,75,64,51,29.80,29.53,12,2,12,0.00
2013-12-30,41.0,35.2,31.8,26.6,24.7,22.6,79,66,52,29.96,29.77,11,3,11,0.00
2013-12-31,61.0,39.7,28.9,30.0,24.0,13.9,83,59,19,30.01,29.80,8,1,8,0.00
2014-1-1,64.9,48.1,32.2,50.7,41.8,29.0,98,81,55,29.80,29.52,15,3,15,0.00
2014-1-2,53.6,36.3,26.9,47.1,20.1,13.7,79,55,29,30.01,29.63,18,5,18,0.00